createdAt,value
2023-01-13T00:00:31.033Z,7.03
2023-01-13T00:02:59.683Z,8.53
2023-01-13T00:05:28.402Z,8.20
2023-01-13T00:07:56.382Z,8.93
2023-01-13T00:10:25.768Z,9.60
2023-01-13T00:12:53.887Z,10.13
2023-01-13T00:15:23.072Z,9.77
2023-01-13T00:17:51.027Z,9.87
2023-01-13T00:20:19.189Z,7.80
2023-01-13T00:22:47.274Z,7.03
2023-01-13T00:25:15.168Z,7.57
2023-01-13T00:27:44.480Z,7.87
2023-01-13T00:30:13.203Z,7.43
2023-01-13T00:32:41.283Z,7.23
2023-01-13T00:35:10.227Z,6.77
2023-01-13T00:37:38.745Z,7.37
2023-01-13T00:40:07.718Z,6.83
2023-01-13T00:42:52.903Z,7.00
2023-01-13T00:45:22.151Z,6.00
2023-01-13T00:47:50.141Z,6.67
2023-01-13T00:50:18.102Z,6.77
2023-01-13T00:52:46.114Z,6.53
2023-01-13T00:55:13.991Z,7.20
2023-01-13T00:57:41.943Z,7.07
2023-01-13T01:00:11.126Z,7.37
2023-01-13T01:02:40.455Z,7.20
2023-01-13T01:05:09.775Z,7.37
2023-01-13T01:07:37.770Z,7.27
2023-01-13T01:10:06.433Z,7.47
2023-01-13T01:12:35.904Z,6.33
2023-01-13T01:15:06.109Z,7.27
2023-01-13T01:17:34.043Z,7.30
2023-01-13T01:20:03.336Z,6.63
2023-01-13T01:22:31.475Z,7.47
2023-01-13T01:24:59.785Z,7.73
2023-01-13T01:27:27.750Z,7.73
2023-01-13T01:29:55.767Z,8.60
2023-01-13T01:32:23.825Z,7.97
2023-01-13T01:34:52.533Z,7.53
2023-01-13T01:37:21.941Z,6.87
2023-01-13T01:39:49.864Z,6.90
2023-01-13T01:42:35.581Z,8.10
2023-01-13T01:45:15.022Z,8.47
2023-01-13T01:47:44.417Z,8.40
2023-01-13T01:50:13.061Z,9.60
2023-01-13T01:52:45.563Z,7.63
2023-01-13T01:55:16.905Z,8.80
2023-01-13T01:57:50.228Z,7.27
2023-01-13T02:00:18.427Z,7.27
2023-01-13T02:02:49.186Z,8.13
2023-01-13T02:05:17.475Z,7.43
2023-01-13T02:07:50.556Z,7.50
2023-01-13T02:10:20.715Z,7.47
2023-01-13T02:12:49.049Z,7.67
2023-01-13T02:15:19.252Z,8.33
2023-01-13T02:18:10.530Z,7.63
2023-01-13T02:20:58.255Z,7.60
2023-01-13T02:24:13.551Z,7.20
2023-01-13T02:27:20.916Z,8.20
2023-01-13T02:30:26.653Z,9.13
2023-01-13T02:33:07.122Z,10.03
2023-01-13T02:35:41.741Z,8.57
2023-01-13T02:38:12.282Z,8.70
2023-01-13T02:40:46.924Z,10.20
2023-01-13T02:43:41.858Z,10.20
2023-01-13T02:46:16.439Z,10.03
2023-01-13T02:48:47.739Z,8.80
2023-01-13T02:51:18.741Z,8.93
2023-01-13T02:53:51.933Z,9.37
2023-01-13T02:56:22.547Z,9.63
2023-01-13T02:58:51.499Z,9.73
2023-01-13T03:01:21.353Z,9.30
2023-01-13T03:03:50.078Z,8.40
2023-01-13T03:06:33.039Z,7.07
2023-01-13T03:09:08.510Z,6.47
2023-01-13T03:11:46.919Z,7.93
2023-01-13T03:14:26.529Z,6.80
2023-01-13T03:17:07.117Z,7.53
2023-01-13T03:19:44.444Z,7.00
2023-01-13T03:22:27.536Z,6.47
2023-01-13T03:25:02.115Z,7.67
2023-01-13T03:27:36.061Z,7.07
2023-01-13T03:30:07.763Z,6.80
2023-01-13T03:32:40.280Z,7.50
2023-01-13T03:35:13.342Z,7.40
2023-01-13T03:37:46.797Z,7.70
2023-01-13T03:40:18.417Z,7.67
2023-01-13T03:43:03.096Z,7.63
2023-01-13T03:45:35.709Z,7.67
2023-01-13T03:48:10.039Z,7.47
2023-01-13T03:50:42.785Z,8.63
2023-01-13T03:53:13.782Z,8.53
2023-01-13T03:55:45.961Z,9.07
2023-01-13T03:58:17.370Z,8.73
2023-01-13T04:00:51.857Z,9.50
2023-01-13T04:03:26.406Z,8.33
2023-01-13T04:06:07.679Z,8.67
2023-01-13T04:08:37.720Z,9.47
2023-01-13T04:11:10.895Z,9.77
2023-01-13T04:13:43.548Z,9.47
2023-01-13T04:16:12.866Z,9.60
2023-01-13T04:18:42.186Z,8.33
2023-01-13T04:21:10.407Z,9.03
2023-01-13T04:23:38.359Z,9.70
2023-01-13T04:26:06.533Z,8.40
2023-01-13T04:28:35.001Z,7.53
2023-01-13T04:31:03.170Z,8.57
2023-01-13T04:33:31.167Z,8.57
2023-01-13T04:36:00.697Z,7.53
2023-01-13T04:38:28.676Z,7.97
2023-01-13T04:40:56.612Z,9.17
2023-01-13T04:43:24.473Z,8.87
2023-01-13T04:45:52.475Z,8.17
2023-01-13T04:48:20.544Z,8.80
2023-01-13T04:50:48.592Z,10.50
2023-01-13T04:53:17.936Z,11.43
2023-01-13T04:55:47.908Z,12.17
2023-01-13T04:58:15.886Z,12.03
2023-01-13T05:00:43.968Z,11.57
2023-01-13T05:03:11.965Z,12.57
2023-01-13T05:05:39.929Z,11.50
2023-01-13T05:08:09.068Z,10.63
2023-01-13T05:10:38.537Z,10.67
2023-01-13T05:13:23.964Z,9.30
2023-01-13T05:16:17.593Z,9.47
2023-01-13T05:18:45.789Z,7.87
2023-01-13T05:21:27.809Z,7.97
2023-01-13T05:24:13.716Z,8.20
2023-01-13T05:26:43.147Z,8.80
2023-01-13T05:29:11.133Z,7.63
2023-01-13T05:31:39.142Z,9.27
2023-01-13T05:34:07.090Z,9.23
2023-01-13T05:36:35.054Z,8.53
2023-01-13T05:39:03.696Z,8.07
2023-01-13T05:41:49.159Z,9.97
2023-01-13T05:44:18.477Z,10.27
2023-01-13T05:46:46.438Z,9.93
2023-01-13T05:49:14.502Z,11.27
2023-01-13T05:51:42.791Z,9.80
2023-01-13T05:54:10.673Z,9.33
2023-01-13T05:56:38.671Z,7.77
2023-01-13T05:59:07.206Z,8.87
2023-01-13T06:01:37.243Z,8.43
2023-01-13T06:04:05.584Z,7.80
2023-01-13T06:06:33.527Z,7.87
2023-01-13T06:09:01.543Z,7.73
2023-01-13T06:11:29.544Z,7.60
2023-01-13T06:13:57.524Z,7.10
2023-01-13T06:16:25.610Z,8.67
2023-01-13T06:18:55.181Z,10.10
2023-01-13T06:21:23.237Z,10.10
2023-01-13T06:23:51.177Z,10.23
2023-01-13T06:26:23.189Z,9.27
2023-01-13T06:28:51.350Z,10.97
2023-01-13T06:31:20.086Z,9.10
2023-01-13T06:33:51.869Z,8.47
2023-01-13T06:36:25.109Z,8.90
2023-01-13T06:38:58.020Z,9.33
2023-01-13T06:41:41.432Z,7.63
2023-01-13T06:44:09.389Z,8.23
2023-01-13T06:46:37.640Z,8.87
2023-01-13T06:49:05.726Z,9.20
2023-01-13T06:51:35.115Z,9.10
2023-01-13T06:54:03.308Z,7.30
2023-01-13T06:56:31.304Z,7.90
2023-01-13T06:58:59.311Z,7.17
2023-01-13T07:01:27.360Z,7.97
2023-01-13T07:03:55.363Z,8.00
2023-01-13T07:06:23.455Z,7.40
2023-01-13T07:08:52.736Z,7.90
2023-01-13T07:11:20.729Z,7.53
2023-01-13T07:14:05.708Z,9.53
2023-01-13T07:16:33.789Z,7.10
2023-01-13T07:19:01.874Z,8.67
2023-01-13T07:21:29.934Z,7.43
2023-01-13T07:23:59.350Z,6.83
2023-01-13T07:26:27.282Z,7.87
2023-01-13T07:28:55.182Z,7.47
2023-01-13T07:31:23.248Z,7.07
2023-01-13T07:33:51.438Z,7.20
2023-01-13T07:36:19.382Z,8.07
2023-01-13T07:38:47.311Z,7.67
2023-01-13T07:41:34.591Z,8.57
2023-01-13T07:44:05.339Z,9.03
2023-01-13T07:46:33.490Z,8.97
2023-01-13T07:49:01.477Z,9.37
2023-01-13T07:51:29.468Z,10.43
2023-01-13T07:53:57.538Z,7.67
2023-01-13T07:56:26.838Z,7.50
2023-01-13T07:58:54.789Z,7.20
2023-01-13T08:01:22.844Z,7.45
2023-01-13T08:03:51.016Z,8.60
2023-01-13T08:06:19.011Z,9.97
2023-01-13T08:08:46.953Z,10.03
2023-01-13T08:11:14.881Z,10.13
2023-01-13T08:13:44.410Z,8.53
2023-01-13T08:16:14.626Z,8.23
2023-01-13T08:18:43.085Z,11.67
2023-01-13T08:21:12.837Z,9.10
2023-01-13T08:23:41.923Z,8.27
2023-01-13T08:26:11.984Z,7.57
2023-01-13T08:28:41.326Z,7.87
2023-01-13T08:31:13.360Z,7.27
2023-01-13T08:33:41.644Z,7.80
2023-01-13T08:36:11.298Z,8.90
2023-01-13T08:38:41.793Z,9.27
2023-01-13T08:41:11.406Z,10.17
2023-01-13T08:43:39.830Z,8.10
2023-01-13T08:46:07.821Z,8.77
2023-01-13T08:48:37.479Z,6.77
2023-01-13T08:51:06.860Z,8.20
2023-01-13T08:53:34.906Z,9.23
2023-01-13T08:56:02.918Z,7.57
2023-01-13T08:58:30.820Z,7.23
2023-01-13T09:00:58.943Z,8.00
2023-01-13T09:03:26.992Z,7.53
2023-01-13T09:05:56.305Z,7.17
2023-01-13T09:08:24.645Z,6.90
2023-01-13T09:10:52.812Z,6.73
2023-01-13T09:13:21.927Z,6.30
2023-01-13T09:15:49.986Z,6.57
2023-01-13T09:18:18.051Z,6.73
2023-01-13T09:20:47.245Z,6.63
2023-01-13T09:23:16.775Z,8.50
2023-01-13T09:25:44.716Z,8.90
2023-01-13T09:28:12.723Z,8.50
2023-01-13T09:30:40.645Z,8.60
2023-01-13T09:33:26.205Z,8.57
2023-01-13T09:35:59.250Z,7.50
2023-01-13T09:38:28.788Z,6.97
2023-01-13T09:40:57.336Z,6.43
2023-01-13T09:43:48.272Z,7.60
2023-01-13T09:46:40.416Z,7.87
2023-01-13T09:49:16.066Z,6.37
2023-01-13T09:51:48.889Z,8.30
2023-01-13T09:54:24.041Z,6.93
2023-01-13T09:56:53.196Z,6.97
2023-01-13T09:59:21.250Z,7.23
2023-01-13T10:01:59.627Z,8.07
2023-01-13T10:04:28.044Z,6.05
2023-01-13T10:07:00.808Z,5.93
2023-01-13T10:09:35.260Z,7.03
2023-01-13T10:12:18.216Z,5.63
2023-01-13T10:14:53.947Z,5.87
2023-01-13T10:17:29.417Z,7.47
2023-01-13T10:20:04.430Z,6.67
2023-01-13T10:22:50.385Z,6.87
2023-01-13T10:25:32.797Z,6.93
2023-01-13T10:28:09.181Z,7.17
2023-01-13T10:30:40.269Z,7.30
2023-01-13T10:33:13.714Z,6.83
2023-01-13T10:35:57.592Z,6.27
2023-01-13T10:38:27.743Z,7.93
2023-01-13T10:40:59.248Z,8.43
2023-01-13T10:43:28.195Z,6.60
2023-01-13T10:46:07.015Z,7.33
2023-01-13T10:48:37.542Z,6.93
2023-01-13T10:51:27.102Z,7.80
2023-01-13T10:53:58.030Z,8.83
2023-01-13T10:56:29.760Z,9.20
2023-01-13T10:59:23.238Z,6.63
2023-01-13T11:02:01.206Z,6.90
2023-01-13T11:04:34.374Z,6.57
2023-01-13T11:07:03.607Z,8.27
2023-01-13T11:09:32.735Z,6.87
2023-01-13T11:12:03.269Z,7.17
2023-01-13T11:14:39.829Z,7.63
2023-01-13T11:17:23.764Z,6.80
2023-01-13T11:19:59.149Z,7.60
2023-01-13T11:22:32.302Z,6.57
2023-01-13T11:25:02.575Z,7.13
2023-01-13T11:27:41.320Z,7.23
2023-01-13T11:30:21.696Z,6.00
2023-01-13T11:33:06.176Z,7.27
2023-01-13T11:35:37.383Z,5.87
2023-01-13T11:38:13.231Z,7.17
2023-01-13T11:40:47.580Z,6.57
2023-01-13T11:43:25.237Z,7.43
2023-01-13T11:45:57.265Z,7.43
2023-01-13T11:48:28.610Z,8.93
2023-01-13T11:51:04.684Z,9.47
2023-01-13T11:53:46.615Z,8.67
2023-01-13T11:56:32.036Z,8.53
2023-01-13T11:59:21.212Z,7.53
2023-01-13T12:02:19.532Z,6.93
2023-01-13T12:04:56.544Z,7.63
2023-01-13T12:07:40.056Z,7.57
2023-01-13T12:10:14.661Z,8.07
2023-01-13T12:12:52.596Z,7.27
2023-01-13T12:15:53.848Z,7.20
2023-01-13T12:18:39.239Z,6.87
2023-01-13T12:21:30.644Z,6.83
2023-01-13T12:24:09.485Z,7.70
2023-01-13T12:26:42.723Z,6.83
2023-01-13T12:29:15.987Z,6.90
2023-01-13T12:31:46.809Z,7.07
2023-01-13T12:34:31.822Z,6.03
2023-01-13T12:37:09.612Z,6.60
2023-01-13T12:39:46.622Z,7.67
2023-01-13T12:42:38.178Z,6.83
2023-01-13T12:45:08.877Z,7.07
2023-01-13T12:47:40.041Z,6.03
2023-01-13T12:50:41.198Z,6.83
2023-01-13T12:53:35.255Z,7.70
2023-01-13T12:56:31.942Z,7.93
2023-01-13T12:59:34.166Z,6.03
2023-01-13T13:02:27.165Z,6.93
2023-01-13T13:04:58.353Z,7.07
2023-01-13T13:07:41.257Z,7.20
2023-01-13T13:10:19.610Z,7.27
2023-01-13T13:13:15.040Z,6.77
2023-01-13T13:15:43.660Z,7.87
2023-01-13T13:18:25.705Z,7.13
2023-01-13T13:20:58.487Z,7.47
2023-01-13T13:23:48.287Z,8.23
2023-01-13T13:26:37.199Z,7.23
2023-01-13T13:29:43.711Z,8.80
2023-01-13T13:32:33.880Z,7.03
2023-01-13T13:35:30.131Z,7.37
2023-01-13T13:38:37.582Z,6.33
2023-01-13T13:41:31.815Z,7.83
2023-01-13T13:44:21.647Z,7.30
2023-01-13T13:46:50.442Z,7.63
2023-01-13T13:49:21.219Z,7.37
2023-01-13T13:51:59.138Z,8.83
2023-01-13T13:54:29.134Z,7.70
2023-01-13T13:56:58.532Z,8.13
2023-01-13T13:59:30.619Z,7.80
2023-01-13T14:02:03.570Z,8.10
2023-01-13T14:04:35.567Z,7.30
2023-01-13T14:07:16.219Z,7.53
2023-01-13T14:09:49.046Z,6.90
2023-01-13T14:12:20.561Z,7.47
2023-01-13T14:14:50.788Z,8.00
2023-01-13T14:17:23.480Z,6.87
2023-01-13T14:19:59.112Z,8.50
2023-01-13T14:22:27.384Z,8.53
2023-01-13T14:24:58.619Z,7.83
2023-01-13T14:27:28.501Z,7.53
2023-01-13T14:29:59.100Z,6.83
2023-01-13T14:32:32.328Z,6.57
2023-01-13T14:35:00.466Z,6.57
2023-01-13T14:37:36.135Z,7.80
2023-01-13T14:40:06.782Z,7.03
2023-01-13T14:42:35.570Z,7.70
2023-01-13T14:45:03.897Z,7.77
2023-01-13T14:47:34.016Z,6.90
2023-01-13T14:50:05.124Z,7.00
2023-01-13T14:52:36.371Z,6.57
2023-01-13T14:55:26.047Z,7.57
2023-01-13T14:57:54.420Z,7.43
2023-01-13T15:00:25.325Z,7.57
2023-01-13T15:03:07.773Z,6.73
2023-01-13T15:05:47.698Z,7.00
2023-01-13T15:08:29.828Z,6.93
2023-01-13T15:11:03.556Z,7.47
2023-01-13T15:13:37.378Z,6.80
2023-01-13T15:16:08.093Z,6.70
2023-01-13T15:18:40.146Z,8.03
2023-01-13T15:21:08.483Z,9.17
2023-01-13T15:23:36.977Z,7.70
2023-01-13T15:26:25.645Z,7.90
2023-01-13T15:28:55.562Z,8.47
2023-01-13T15:31:24.735Z,7.80
2023-01-13T15:33:52.890Z,6.93
2023-01-13T15:36:27.225Z,8.07
2023-01-13T15:38:55.992Z,7.03
2023-01-13T15:41:43.900Z,6.33
2023-01-13T15:44:30.589Z,6.57
2023-01-13T15:47:00.408Z,6.10
2023-01-13T15:49:34.816Z,6.83
2023-01-13T15:52:04.486Z,5.90
2023-01-13T15:54:32.656Z,6.50
2023-01-13T15:57:02.303Z,7.57
2023-01-13T15:59:30.239Z,6.70
2023-01-13T16:01:58.187Z,7.23
2023-01-13T16:04:26.077Z,7.30
2023-01-13T16:06:54.004Z,6.73
2023-01-13T16:09:21.969Z,7.77
2023-01-13T16:11:49.901Z,7.43
2023-01-13T16:14:19.248Z,7.80
2023-01-13T16:16:47.169Z,7.87
2023-01-13T16:19:15.065Z,7.57
2023-01-13T16:21:43.010Z,7.50
2023-01-13T16:24:11.084Z,7.07
2023-01-13T16:26:39.035Z,7.00
2023-01-13T16:29:07.773Z,6.53
2023-01-13T16:31:37.480Z,8.00
2023-01-13T16:34:06.502Z,7.37
2023-01-13T16:36:36.767Z,8.07
2023-01-13T16:39:20.420Z,7.97
2023-01-13T16:41:48.349Z,7.90
2023-01-13T16:44:16.623Z,7.83
2023-01-13T16:46:47.379Z,8.00
2023-01-13T16:49:17.226Z,7.20
2023-01-13T16:51:45.750Z,7.27
2023-01-13T16:54:15.673Z,7.13
2023-01-13T16:56:44.441Z,6.77
2023-01-13T16:59:14.631Z,6.27
2023-01-13T17:01:45.977Z,6.40
2023-01-13T17:04:17.140Z,6.37
2023-01-13T17:06:52.250Z,6.63
2023-01-13T17:09:21.815Z,6.87
2023-01-13T17:11:50.204Z,6.83
2023-01-13T17:14:19.556Z,7.23
2023-01-13T17:16:49.099Z,6.33
2023-01-13T17:19:18.237Z,6.07
2023-01-13T17:21:47.182Z,7.40
2023-01-13T17:24:15.627Z,6.10
2023-01-13T17:26:47.248Z,7.43
2023-01-13T17:29:17.095Z,6.77
2023-01-13T17:31:45.731Z,6.60
2023-01-13T17:34:15.769Z,6.73
2023-01-13T17:36:44.033Z,7.07
2023-01-13T17:39:17.194Z,7.20
2023-01-13T17:41:45.362Z,5.93
2023-01-13T17:44:14.848Z,6.70
2023-01-13T17:46:43.168Z,6.43
2023-01-13T17:49:12.409Z,7.10
2023-01-13T17:51:42.202Z,6.57
2023-01-13T17:54:12.286Z,6.63
2023-01-13T17:56:40.950Z,7.47
2023-01-13T17:59:10.492Z,6.97
2023-01-13T18:01:39.782Z,5.80
2023-01-13T18:04:08.606Z,6.67
2023-01-13T18:06:36.736Z,6.63
2023-01-13T18:09:06.217Z,6.50
2023-01-13T18:11:34.266Z,7.70
2023-01-13T18:14:02.175Z,7.83
2023-01-13T18:16:32.174Z,6.60
2023-01-13T18:19:14.901Z,7.60
2023-01-13T18:22:00.719Z,8.00
2023-01-13T18:24:47.493Z,6.93
2023-01-13T18:27:23.642Z,7.07
2023-01-13T18:29:53.164Z,7.43
2023-01-13T18:32:21.930Z,7.67
2023-01-13T18:34:53.907Z,7.90
2023-01-13T18:37:26.880Z,7.37
2023-01-13T18:39:56.295Z,8.07
2023-01-13T18:42:41.856Z,7.63
2023-01-13T18:45:10.777Z,8.77
2023-01-13T18:47:57.299Z,9.33
2023-01-13T18:50:25.893Z,8.73
2023-01-13T18:52:54.379Z,8.63
2023-01-13T18:55:25.993Z,8.57
2023-01-13T18:57:54.214Z,8.07
2023-01-13T19:00:23.329Z,7.00
2023-01-13T19:05:35.605Z,6.60
2023-01-13T19:08:03.831Z,6.67
2023-01-13T19:10:33.211Z,7.17
2023-01-13T19:13:02.280Z,7.13
2023-01-13T19:15:30.297Z,7.27
2023-01-13T19:17:58.590Z,7.87
2023-01-13T19:20:26.624Z,7.93
2023-01-13T19:22:55.061Z,7.00
2023-01-13T19:25:23.123Z,7.30
2023-01-13T19:27:52.395Z,7.70
2023-01-13T19:30:20.678Z,8.20
2023-01-13T19:32:48.597Z,7.50
2023-01-13T19:35:18.497Z,7.10
2023-01-13T19:37:46.884Z,6.90
2023-01-13T19:40:15.126Z,7.37
2023-01-13T19:43:01.592Z,6.80
2023-01-13T19:45:33.930Z,7.27
2023-01-13T19:48:04.995Z,7.30
2023-01-13T19:50:36.265Z,7.50
2023-01-13T19:53:04.267Z,7.67
2023-01-13T19:55:32.678Z,7.67
2023-01-13T19:58:00.987Z,7.70
2023-01-13T20:00:30.349Z,7.03
2023-01-13T20:03:03.232Z,7.20
2023-01-13T20:05:31.512Z,7.50
2023-01-13T20:07:59.458Z,8.10
2023-01-13T20:10:30.294Z,7.27
2023-01-13T20:12:58.223Z,7.17
2023-01-13T20:15:26.175Z,6.57
2023-01-13T20:17:57.342Z,7.27
2023-01-13T20:20:27.429Z,7.53
2023-01-13T20:22:55.481Z,9.60
2023-01-13T20:25:23.438Z,8.27
2023-01-13T20:27:51.508Z,6.83
2023-01-13T20:30:19.621Z,7.23
2023-01-13T20:32:47.606Z,6.77
2023-01-13T20:35:17.199Z,8.03
2023-01-13T20:37:48.280Z,7.40
2023-01-13T20:40:18.394Z,6.50
2023-01-13T20:42:46.417Z,8.07
2023-01-13T20:45:17.628Z,7.67
2023-01-13T20:47:46.412Z,9.20
2023-01-13T20:50:17.352Z,7.00
2023-01-13T20:52:46.367Z,7.13
2023-01-13T20:55:14.516Z,7.13
2023-01-13T20:57:42.483Z,7.83
2023-01-13T21:00:11.773Z,8.90
2023-01-13T21:02:41.332Z,10.63
2023-01-13T21:05:09.687Z,7.87
2023-01-13T21:07:38.947Z,7.93
2023-01-13T21:10:07.956Z,6.93
2023-01-13T21:13:04.831Z,7.10
2023-01-13T21:15:32.768Z,7.07
2023-01-13T21:18:18.043Z,6.60
2023-01-13T21:20:46.001Z,7.30
2023-01-13T21:23:15.405Z,7.77
2023-01-13T21:25:43.414Z,7.40
2023-01-13T21:28:11.572Z,7.17
2023-01-13T21:30:40.290Z,7.37
2023-01-13T21:33:08.968Z,8.93
2023-01-13T21:35:39.910Z,9.67
2023-01-13T21:38:08.069Z,8.07
2023-01-13T21:40:37.359Z,7.50
2023-01-13T21:43:22.929Z,6.63
2023-01-13T21:46:08.066Z,7.53
2023-01-13T21:48:36.050Z,7.47
2023-01-13T21:51:04.008Z,7.10
2023-01-13T21:53:32.056Z,7.93
2023-01-13T21:56:01.431Z,6.73
2023-01-13T21:58:29.389Z,7.07
2023-01-13T22:00:57.382Z,7.70
2023-01-13T22:03:25.317Z,7.60
2023-01-13T22:05:56.859Z,7.00
2023-01-13T22:08:24.776Z,6.83
2023-01-13T22:10:57.811Z,7.30
2023-01-13T22:13:45.602Z,6.73
2023-01-13T22:16:14.291Z,7.23
2023-01-13T22:18:42.347Z,6.33
2023-01-13T22:21:11.055Z,7.27
2023-01-13T22:23:39.059Z,7.40
2023-01-13T22:26:08.982Z,7.10
2023-01-13T22:28:42.918Z,7.80
2023-01-13T22:31:12.248Z,7.83
2023-01-13T22:33:41.650Z,7.63
2023-01-13T22:36:10.560Z,7.77
2023-01-13T22:38:38.492Z,7.60
2023-01-13T22:41:08.044Z,6.90
2023-01-13T22:43:36.970Z,7.90
2023-01-13T22:46:10.798Z,6.97
2023-01-13T22:48:39.649Z,7.23
2023-01-13T22:51:08.809Z,7.40
2023-01-13T22:53:38.019Z,6.53
2023-01-13T22:56:06.983Z,7.50
2023-01-13T22:58:34.997Z,6.17
2023-01-13T23:01:12.200Z,7.07
2023-01-13T23:03:40.345Z,8.17
2023-01-13T23:06:08.312Z,7.83
2023-01-13T23:08:37.035Z,6.87
2023-01-13T23:11:07.874Z,7.13
2023-01-13T23:13:36.302Z,8.03
2023-01-13T23:16:05.042Z,7.67
2023-01-13T23:18:34.793Z,6.57
2023-01-13T23:21:07.099Z,7.30
2023-01-13T23:23:35.691Z,6.57
2023-01-13T23:26:05.088Z,7.03
2023-01-13T23:28:34.186Z,6.70
2023-01-13T23:31:06.405Z,6.97
2023-01-13T23:33:35.859Z,6.97
2023-01-13T23:36:06.915Z,6.77
2023-01-13T23:38:35.205Z,6.90
2023-01-13T23:41:06.972Z,7.00
2023-01-13T23:43:35.133Z,6.93
2023-01-13T23:46:04.441Z,6.73
2023-01-13T23:48:32.830Z,7.17
2023-01-13T23:51:03.913Z,7.03
2023-01-13T23:53:33.650Z,6.93
2023-01-13T23:56:03.143Z,7.47
2023-01-13T23:58:31.651Z,7.27
